createdAt,value
2022-12-16T00:00:17.909Z,53.76
2022-12-16T00:02:47.765Z,53.88
2022-12-16T00:05:16.444Z,53.96
2022-12-16T00:07:44.840Z,53.35
2022-12-16T00:10:13.522Z,53.64
2022-12-16T00:12:42.175Z,54.11
2022-12-16T00:15:11.913Z,53.44
2022-12-16T00:17:40.819Z,53.70
2022-12-16T00:20:12.699Z,53.85
2022-12-16T00:22:41.068Z,53.87
2022-12-16T00:25:10.658Z,54.11
2022-12-16T00:27:39.014Z,54.51
2022-12-16T00:30:09.671Z,54.25
2022-12-16T00:32:37.986Z,54.45
2022-12-16T00:35:07.420Z,53.84
2022-12-16T00:37:37.148Z,54.63
2022-12-16T00:40:07.171Z,54.80
2022-12-16T00:42:35.576Z,54.63
2022-12-16T00:45:04.879Z,54.41
2022-12-16T00:47:33.272Z,54.20
2022-12-16T00:50:01.949Z,54.85
2022-12-16T00:52:30.520Z,54.31
2022-12-16T00:55:00.351Z,54.33
2022-12-16T00:57:28.727Z,54.13
2022-12-16T00:59:57.099Z,54.33
2022-12-16T01:02:25.564Z,54.26
2022-12-16T01:04:54.048Z,54.70
2022-12-16T01:07:23.293Z,54.54
2022-12-16T01:09:52.342Z,54.47
2022-12-16T01:12:25.036Z,54.39
2022-12-16T01:14:53.404Z,55.11
2022-12-16T01:17:22.077Z,55.12
2022-12-16T01:19:50.475Z,54.91
2022-12-16T01:22:19.432Z,55.17
2022-12-16T01:24:47.853Z,54.73
2022-12-16T01:27:16.875Z,54.60
2022-12-16T01:29:46.601Z,54.45
2022-12-16T01:32:16.093Z,54.44
2022-12-16T01:34:48.451Z,54.60
2022-12-16T01:37:20.567Z,54.72
2022-12-16T01:39:49.233Z,54.44
2022-12-16T01:42:19.789Z,54.88
2022-12-16T01:44:55.026Z,54.83
2022-12-16T01:47:27.861Z,54.76
2022-12-16T01:50:04.026Z,54.89
2022-12-16T01:52:38.809Z,54.78
2022-12-16T01:55:12.615Z,54.47
2022-12-16T01:57:47.284Z,55.09
2022-12-16T02:00:18.111Z,54.64
2022-12-16T02:02:48.617Z,54.54
2022-12-16T02:05:24.438Z,54.91
2022-12-16T02:08:01.003Z,54.95
2022-12-16T02:10:48.551Z,54.95
2022-12-16T02:13:27.773Z,54.87
2022-12-16T02:16:09.965Z,54.62
2022-12-16T02:18:51.003Z,54.45
2022-12-16T02:21:40.306Z,54.94
2022-12-16T02:25:10.552Z,54.48
2022-12-16T02:27:56.926Z,54.98
2022-12-16T02:31:03.420Z,54.94
2022-12-16T02:34:03.325Z,55.01
2022-12-16T02:36:55.493Z,55.00
2022-12-16T02:39:29.728Z,54.37
2022-12-16T02:42:13.119Z,54.71
2022-12-16T02:44:54.328Z,54.72
2022-12-16T02:47:24.702Z,54.51
2022-12-16T02:49:55.223Z,54.58
2022-12-16T02:52:27.255Z,54.57
2022-12-16T02:55:00.541Z,55.02
2022-12-16T02:58:11.775Z,55.14
2022-12-16T03:00:53.571Z,55.13
2022-12-16T03:03:29.885Z,54.54
2022-12-16T03:06:01.373Z,54.62
2022-12-16T03:08:35.196Z,54.59
2022-12-16T03:11:06.230Z,54.69
2022-12-16T03:13:40.967Z,54.57
2022-12-16T03:16:13.335Z,54.70
2022-12-16T03:18:47.821Z,54.96
2022-12-16T03:21:17.122Z,54.62
2022-12-16T03:23:54.224Z,54.66
2022-12-16T03:26:28.755Z,55.00
2022-12-16T03:29:03.364Z,55.08
2022-12-16T03:31:39.926Z,54.71
2022-12-16T03:34:18.299Z,54.98
2022-12-16T03:36:52.653Z,54.98
2022-12-16T03:39:23.232Z,54.90
2022-12-16T03:41:54.528Z,54.83
2022-12-16T03:44:26.417Z,55.00
2022-12-16T03:46:55.021Z,54.59
2022-12-16T03:49:24.804Z,54.60
2022-12-16T03:51:54.625Z,54.73
2022-12-16T03:54:24.338Z,55.07
2022-12-16T03:56:52.783Z,54.74
2022-12-16T03:59:21.352Z,54.91
2022-12-16T04:01:50.096Z,54.78
2022-12-16T04:04:19.374Z,54.78
2022-12-16T04:07:09.980Z,55.23
2022-12-16T04:09:38.386Z,54.96
2022-12-16T04:12:21.397Z,55.05
2022-12-16T04:15:06.986Z,54.89
2022-12-16T04:17:53.242Z,55.42
2022-12-16T04:20:41.714Z,55.33
2022-12-16T04:23:30.723Z,55.05
2022-12-16T04:25:59.662Z,55.38
2022-12-16T04:28:28.027Z,55.25
2022-12-16T04:30:56.833Z,55.02
2022-12-16T04:33:43.105Z,54.80
2022-12-16T04:36:28.692Z,54.68
2022-12-16T04:39:15.539Z,55.17
2022-12-16T04:42:01.469Z,54.30
2022-12-16T04:44:47.127Z,54.73
2022-12-16T04:47:32.798Z,54.67
2022-12-16T04:50:18.629Z,54.93
2022-12-16T04:53:04.226Z,54.73
2022-12-16T04:55:51.527Z,54.78
2022-12-16T04:58:37.362Z,54.98
2022-12-16T05:01:23.296Z,54.78
2022-12-16T05:04:09.567Z,54.52
2022-12-16T05:06:55.409Z,54.94
2022-12-16T05:09:41.355Z,54.84
2022-12-16T05:12:28.313Z,55.02
2022-12-16T05:15:14.292Z,55.07
2022-12-16T05:18:00.254Z,55.19
2022-12-16T05:20:46.112Z,54.74
2022-12-16T05:23:32.313Z,55.00
2022-12-16T05:26:18.382Z,54.90
2022-12-16T05:29:05.333Z,55.04
2022-12-16T05:31:51.222Z,55.03
2022-12-16T05:34:33.464Z,55.13
2022-12-16T05:37:19.059Z,54.75
2022-12-16T05:40:05.001Z,55.07
2022-12-16T05:43:05.065Z,54.79
2022-12-16T05:45:52.533Z,54.71
2022-12-16T05:48:40.984Z,54.77
2022-12-16T05:51:30.227Z,54.66
2022-12-16T05:54:15.812Z,54.66
2022-12-16T05:57:01.872Z,54.62
2022-12-16T05:59:47.656Z,54.75
2022-12-16T06:02:34.852Z,54.59
2022-12-16T06:05:20.840Z,54.81
2022-12-16T06:08:25.271Z,54.79
2022-12-16T06:11:11.249Z,54.52
2022-12-16T06:13:57.251Z,54.42
2022-12-16T06:16:42.851Z,54.68
2022-12-16T06:19:30.160Z,54.76
2022-12-16T06:22:15.899Z,54.71
2022-12-16T06:25:01.420Z,54.58
2022-12-16T06:27:47.069Z,54.74
2022-12-16T06:30:33.236Z,54.67
2022-12-16T06:33:19.134Z,54.66
2022-12-16T06:36:06.142Z,54.66
2022-12-16T06:39:00.492Z,54.65
2022-12-16T06:41:46.203Z,54.65
2022-12-16T06:44:32.221Z,54.56
2022-12-16T06:47:18.123Z,54.41
2022-12-16T06:50:03.784Z,54.60
2022-12-16T06:52:50.922Z,54.53
2022-12-16T06:55:37.214Z,54.42
2022-12-16T06:58:23.023Z,54.38
2022-12-16T07:01:09.310Z,54.53
2022-12-16T07:03:54.981Z,54.47
2022-12-16T07:06:40.856Z,54.55
2022-12-16T07:09:27.961Z,54.49
2022-12-16T07:12:13.866Z,54.61
2022-12-16T07:14:59.584Z,54.59
2022-12-16T07:17:45.511Z,54.59
2022-12-16T07:20:31.866Z,54.54
2022-12-16T07:23:32.342Z,54.58
2022-12-16T07:26:19.973Z,54.66
2022-12-16T07:29:05.486Z,54.54
2022-12-16T07:31:51.365Z,54.54
2022-12-16T07:34:41.285Z,54.30
2022-12-16T07:37:28.706Z,54.22
2022-12-16T07:40:14.575Z,54.13
2022-12-16T07:43:04.802Z,54.32
2022-12-16T07:45:51.106Z,54.48
2022-12-16T07:48:36.765Z,54.54
2022-12-16T07:51:22.563Z,54.68
2022-12-16T07:54:08.216Z,54.77
2022-12-16T07:56:53.928Z,54.49
2022-12-16T07:59:52.650Z,54.48
2022-12-16T08:02:38.328Z,54.51
2022-12-16T08:05:25.124Z,54.65
2022-12-16T08:08:10.700Z,54.63
2022-12-16T08:10:56.687Z,54.31
2022-12-16T08:13:42.981Z,54.17
2022-12-16T08:16:30.153Z,54.22
2022-12-16T08:19:16.326Z,54.24
2022-12-16T08:22:02.404Z,54.56
2022-12-16T08:24:53.192Z,54.63
2022-12-16T08:27:39.511Z,54.30
2022-12-16T08:30:27.666Z,54.57
2022-12-16T08:33:19.321Z,54.48
2022-12-16T08:36:06.411Z,54.37
2022-12-16T08:38:52.823Z,54.40
2022-12-16T08:41:38.764Z,54.49
2022-12-16T08:44:24.896Z,54.76
2022-12-16T08:47:10.670Z,54.59
2022-12-16T08:50:01.532Z,54.77
2022-12-16T08:52:49.094Z,54.96
2022-12-16T08:55:35.287Z,54.65
2022-12-16T08:58:20.856Z,54.81
2022-12-16T09:01:07.964Z,54.66
2022-12-16T09:03:54.174Z,54.77
2022-12-16T09:06:41.936Z,54.98
2022-12-16T09:09:28.251Z,55.07
2022-12-16T09:12:14.064Z,54.82
2022-12-16T09:14:59.800Z,54.93
2022-12-16T09:17:45.534Z,54.98
2022-12-16T09:20:31.586Z,54.68
2022-12-16T09:23:31.747Z,54.51
2022-12-16T09:26:17.617Z,54.46
2022-12-16T09:29:03.639Z,54.84
2022-12-16T09:31:49.274Z,54.36
2022-12-16T09:34:35.065Z,54.29
2022-12-16T09:37:21.047Z,54.74
2022-12-16T09:40:13.764Z,54.42
2022-12-16T09:43:09.138Z,54.76
2022-12-16T09:46:07.440Z,55.17
2022-12-16T09:49:00.564Z,54.11
2022-12-16T09:51:47.739Z,54.01
2022-12-16T09:54:38.206Z,53.95
2022-12-16T09:57:28.795Z,53.91
2022-12-16T10:00:21.080Z,54.13
2022-12-16T10:03:09.391Z,54.12
2022-12-16T10:06:15.512Z,53.91
2022-12-16T10:09:11.160Z,54.18
2022-12-16T10:12:11.140Z,54.27
2022-12-16T10:15:07.459Z,54.20
2022-12-16T10:17:59.844Z,54.17
2022-12-16T10:20:58.035Z,53.99
2022-12-16T10:23:50.810Z,53.58
2022-12-16T10:26:48.304Z,53.54
2022-12-16T10:29:38.774Z,53.05
2022-12-16T10:32:37.422Z,52.96
2022-12-16T10:35:38.042Z,52.39
2022-12-16T10:38:36.882Z,51.79
2022-12-16T10:41:23.215Z,51.77
2022-12-16T10:44:10.369Z,51.43
2022-12-16T10:46:56.376Z,51.54
2022-12-16T10:49:43.587Z,51.68
2022-12-16T10:52:32.275Z,51.80
2022-12-16T10:55:31.110Z,51.79
2022-12-16T10:58:37.898Z,51.88
2022-12-16T11:01:56.332Z,51.90
2022-12-16T11:04:52.207Z,51.54
2022-12-16T11:07:50.882Z,51.39
2022-12-16T11:10:54.124Z,51.45
2022-12-16T11:13:44.423Z,51.46
2022-12-16T11:16:35.831Z,51.24
2022-12-16T11:19:23.031Z,51.13
2022-12-16T11:22:23.846Z,50.76
2022-12-16T11:25:25.179Z,50.18
2022-12-16T11:28:22.548Z,50.48
2022-12-16T11:31:12.525Z,50.56
2022-12-16T11:33:58.730Z,49.95
2022-12-16T11:36:45.755Z,49.68
2022-12-16T11:39:36.626Z,49.94
2022-12-16T11:42:24.042Z,49.46
2022-12-16T11:45:15.597Z,49.33
2022-12-16T11:48:05.719Z,49.42
2022-12-16T11:50:55.507Z,49.25
2022-12-16T11:53:51.054Z,48.66
2022-12-16T11:56:57.050Z,48.50
2022-12-16T11:59:52.186Z,48.00
2022-12-16T12:02:51.326Z,48.24
2022-12-16T12:05:41.040Z,48.42
2022-12-16T12:08:39.896Z,48.24
2022-12-16T12:11:35.991Z,48.37
2022-12-16T12:14:39.225Z,48.44
2022-12-16T12:17:41.228Z,48.78
2022-12-16T12:20:55.793Z,48.84
2022-12-16T12:23:56.665Z,48.54
2022-12-16T12:26:49.514Z,48.86
2022-12-16T12:29:51.299Z,48.46
2022-12-16T12:32:45.526Z,47.72
2022-12-16T12:35:50.527Z,48.25
2022-12-16T12:38:43.430Z,48.43
2022-12-16T12:41:48.498Z,48.30
2022-12-16T12:44:49.464Z,48.10
2022-12-16T12:47:37.596Z,48.59
2022-12-16T12:50:32.563Z,48.54
2022-12-16T12:53:34.604Z,48.31
2022-12-16T12:56:29.054Z,48.62
2022-12-16T12:59:21.881Z,48.73
2022-12-16T13:02:12.036Z,48.75
2022-12-16T13:04:58.630Z,48.63
2022-12-16T13:07:45.104Z,48.82
2022-12-16T13:10:54.257Z,48.73
2022-12-16T13:13:53.276Z,48.53
2022-12-16T13:17:25.989Z,48.43
2022-12-16T13:20:16.870Z,48.52
2022-12-16T13:23:04.819Z,48.48
2022-12-16T13:26:09.798Z,48.33
2022-12-16T13:28:59.280Z,48.04
2022-12-16T13:31:48.861Z,48.21
2022-12-16T13:34:47.073Z,48.18
2022-12-16T13:37:42.386Z,48.00
2022-12-16T13:40:37.532Z,48.12
2022-12-16T13:43:24.115Z,48.19
2022-12-16T13:46:35.994Z,48.60
2022-12-16T13:50:04.126Z,48.73
2022-12-16T13:53:01.439Z,48.96
2022-12-16T13:55:52.180Z,49.14
2022-12-16T13:58:55.059Z,49.21
2022-12-16T14:01:55.683Z,49.08
2022-12-16T14:04:48.122Z,48.92
2022-12-16T14:07:36.837Z,48.94
2022-12-16T14:10:23.784Z,49.12
2022-12-16T14:13:21.862Z,49.16
2022-12-16T14:16:20.736Z,49.26
2022-12-16T14:19:26.555Z,49.11
2022-12-16T14:22:21.288Z,49.05
2022-12-16T14:25:09.599Z,49.22
2022-12-16T14:27:55.590Z,49.37
2022-12-16T14:30:44.658Z,49.70
2022-12-16T14:33:42.611Z,49.47
2022-12-16T14:36:43.942Z,49.78
2022-12-16T14:39:32.138Z,49.59
2022-12-16T14:42:19.522Z,49.66
2022-12-16T14:45:06.847Z,49.52
2022-12-16T14:47:52.907Z,49.40
2022-12-16T14:50:43.910Z,49.49
2022-12-16T14:53:37.667Z,49.67
2022-12-16T14:56:36.171Z,49.33
2022-12-16T14:59:31.703Z,49.08
2022-12-16T15:02:29.163Z,49.09
2022-12-16T15:05:15.776Z,49.02
2022-12-16T15:08:07.268Z,49.57
2022-12-16T15:10:53.745Z,49.56
2022-12-16T15:13:40.876Z,49.13
2022-12-16T15:16:37.449Z,48.93
2022-12-16T15:19:23.983Z,49.03
2022-12-16T15:22:09.836Z,49.40
2022-12-16T15:24:57.445Z,49.26
2022-12-16T15:27:45.145Z,48.88
2022-12-16T15:30:56.800Z,49.30
2022-12-16T15:33:47.115Z,49.72
2022-12-16T15:36:44.499Z,49.17
2022-12-16T15:39:40.205Z,49.53
2022-12-16T15:42:39.532Z,49.10
2022-12-16T15:45:37.388Z,49.32
2022-12-16T15:48:36.032Z,49.64
2022-12-16T15:51:23.756Z,49.54
2022-12-16T15:54:21.973Z,49.69
2022-12-16T15:57:07.998Z,49.60
2022-12-16T15:59:56.450Z,49.73
2022-12-16T16:02:45.810Z,49.59
2022-12-16T16:05:33.688Z,49.52
2022-12-16T16:08:20.953Z,48.84
2022-12-16T16:11:06.631Z,49.21
2022-12-16T16:13:52.360Z,49.41
2022-12-16T16:16:38.402Z,49.15
2022-12-16T16:19:30.826Z,49.48
2022-12-16T16:22:16.891Z,49.06
2022-12-16T16:25:04.073Z,49.02
2022-12-16T16:27:50.583Z,49.36
2022-12-16T16:30:36.562Z,49.16
2022-12-16T16:33:23.576Z,48.77
2022-12-16T16:36:09.486Z,48.94
2022-12-16T16:38:55.397Z,49.29
2022-12-16T16:41:43.352Z,49.23
2022-12-16T16:44:29.237Z,48.78
2022-12-16T16:47:28.281Z,48.84
2022-12-16T16:50:19.124Z,49.06
2022-12-16T16:53:05.139Z,48.76
2022-12-16T16:55:50.916Z,49.18
2022-12-16T16:58:45.479Z,48.97
2022-12-16T17:01:34.850Z,49.01
2022-12-16T17:04:21.176Z,49.43
2022-12-16T17:07:07.404Z,49.46
2022-12-16T17:09:53.367Z,49.34
2022-12-16T17:12:42.095Z,49.60
2022-12-16T17:15:36.175Z,49.37
2022-12-16T17:18:23.669Z,49.27
2022-12-16T17:21:10.498Z,49.40
2022-12-16T17:23:57.466Z,49.39
2022-12-16T17:26:43.831Z,49.01
2022-12-16T17:29:38.726Z,49.37
2022-12-16T17:32:26.965Z,49.29
2022-12-16T17:35:12.759Z,49.25
2022-12-16T17:37:58.775Z,50.00
2022-12-16T17:40:45.559Z,49.29
2022-12-16T17:43:32.736Z,49.73
2022-12-16T17:46:21.786Z,49.50
2022-12-16T17:49:12.169Z,50.21
2022-12-16T17:51:57.600Z,50.09
2022-12-16T17:54:43.832Z,50.10
2022-12-16T17:57:30.904Z,50.74
2022-12-16T18:00:17.019Z,50.50
2022-12-16T18:03:03.348Z,50.28
2022-12-16T18:05:51.072Z,50.90
2022-12-16T18:08:37.438Z,51.17
2022-12-16T18:11:24.226Z,50.76
2022-12-16T18:14:11.460Z,50.84
2022-12-16T18:16:57.776Z,51.25
2022-12-16T18:19:44.824Z,51.56
2022-12-16T18:22:37.437Z,51.47
2022-12-16T18:25:24.216Z,51.88
2022-12-16T18:28:10.220Z,51.77
2022-12-16T18:30:57.680Z,51.56
2022-12-16T18:33:43.841Z,51.99
2022-12-16T18:36:29.792Z,52.39
2022-12-16T18:39:17.509Z,51.72
2022-12-16T18:42:04.939Z,52.15
2022-12-16T18:45:00.701Z,51.86
2022-12-16T18:47:47.980Z,52.15
2022-12-16T18:50:38.051Z,52.42
2022-12-16T18:53:25.449Z,52.17
2022-12-16T18:56:22.839Z,52.23
2022-12-16T18:59:09.551Z,53.05
2022-12-16T19:01:57.796Z,52.61
2022-12-16T19:04:44.629Z,53.03
2022-12-16T19:07:33.753Z,52.29
2022-12-16T19:10:22.688Z,53.18
2022-12-16T19:13:15.054Z,52.86
2022-12-16T19:16:01.653Z,52.84
2022-12-16T19:18:48.584Z,52.28
2022-12-16T19:21:36.389Z,52.74
2022-12-16T19:24:22.920Z,52.31
2022-12-16T19:27:15.181Z,53.33
2022-12-16T19:30:05.183Z,51.98
2022-12-16T19:32:50.870Z,52.78
2022-12-16T19:35:37.491Z,52.78
2022-12-16T19:38:23.842Z,52.93
2022-12-16T19:41:13.154Z,53.12
2022-12-16T19:47:09.393Z,53.34
2022-12-16T19:49:56.075Z,53.66
2022-12-16T19:52:42.584Z,53.20
2022-12-16T19:55:29.233Z,53.06
2022-12-16T19:58:15.173Z,53.59
2022-12-16T20:01:03.938Z,53.51
2022-12-16T20:03:56.665Z,53.17
2022-12-16T20:07:01.140Z,53.37
2022-12-16T20:09:47.645Z,53.97
2022-12-16T20:12:33.987Z,53.61
2022-12-16T20:15:23.210Z,53.57
2022-12-16T20:18:09.618Z,54.12
2022-12-16T20:20:58.256Z,53.30
2022-12-16T20:23:41.748Z,53.68
2022-12-16T20:26:28.442Z,53.19
2022-12-16T20:29:15.090Z,53.79
2022-12-16T20:32:01.608Z,53.69
2022-12-16T20:34:47.246Z,53.97
2022-12-16T20:37:37.315Z,53.97
2022-12-16T20:40:24.915Z,53.81
2022-12-16T20:43:11.214Z,54.17
2022-12-16T20:45:58.131Z,53.33
2022-12-16T20:48:44.299Z,54.25
2022-12-16T20:51:30.528Z,53.45
2022-12-16T20:54:17.877Z,54.05
2022-12-16T20:57:07.036Z,54.00
2022-12-16T20:59:58.166Z,54.41
2022-12-16T21:02:45.404Z,53.70
2022-12-16T21:05:32.386Z,54.11
2022-12-16T21:08:19.250Z,53.62
2022-12-16T21:11:07.731Z,54.09
2022-12-16T21:13:56.373Z,52.99
2022-12-16T21:16:59.661Z,53.27
2022-12-16T21:19:46.070Z,52.91
2022-12-16T21:22:32.080Z,53.42
2022-12-16T21:25:24.415Z,53.83
2022-12-16T21:28:15.840Z,52.79
2022-12-16T21:31:02.028Z,53.47
2022-12-16T21:33:48.592Z,53.97
2022-12-16T21:36:35.053Z,53.84
2022-12-16T21:39:21.284Z,54.10
2022-12-16T21:42:07.850Z,53.51
2022-12-16T21:48:00.751Z,53.87
2022-12-16T21:50:46.572Z,53.15
2022-12-16T21:53:32.808Z,54.09
2022-12-16T21:56:18.583Z,54.12
2022-12-16T21:59:04.497Z,54.03
2022-12-16T22:01:51.590Z,53.71
2022-12-16T22:04:37.693Z,53.72
2022-12-16T22:07:23.525Z,54.40
2022-12-16T22:10:09.551Z,54.51
2022-12-16T22:12:56.236Z,54.81
2022-12-16T22:15:41.999Z,54.31
2022-12-16T22:18:29.055Z,54.88
2022-12-16T22:21:17.135Z,54.11
2022-12-16T22:24:02.961Z,54.41
2022-12-16T22:26:48.796Z,54.79
2022-12-16T22:29:34.810Z,54.69
2022-12-16T22:32:20.524Z,54.90
2022-12-16T22:35:07.944Z,55.10
2022-12-16T22:37:54.067Z,55.22
2022-12-16T22:40:41.841Z,54.28
2022-12-16T22:43:27.855Z,55.02
2022-12-16T22:46:18.354Z,54.27
2022-12-16T22:49:05.225Z,54.40
2022-12-16T22:51:52.904Z,55.05
2022-12-16T22:54:39.645Z,54.63
2022-12-16T22:57:21.879Z,54.52
2022-12-16T23:00:07.696Z,54.42
2022-12-16T23:02:53.483Z,54.04
2022-12-16T23:05:39.787Z,54.76
2022-12-16T23:08:30.186Z,54.42
2022-12-16T23:11:17.650Z,54.26
2022-12-16T23:14:03.831Z,54.34
2022-12-16T23:16:49.692Z,54.41
2022-12-16T23:19:35.208Z,54.35
2022-12-16T23:22:21.109Z,54.02
2022-12-16T23:25:08.447Z,53.53
2022-12-16T23:27:55.349Z,53.94
2022-12-16T23:30:57.203Z,54.29
2022-12-16T23:33:43.098Z,53.29
2022-12-16T23:36:28.780Z,54.05
2022-12-16T23:39:20.074Z,53.05
2022-12-16T23:42:07.418Z,53.13
2022-12-16T23:44:56.491Z,53.88
2022-12-16T23:47:42.537Z,53.50
2022-12-16T23:50:28.981Z,53.85
2022-12-16T23:53:30.367Z,53.82
2022-12-16T23:56:18.454Z,53.62
2022-12-16T23:59:06.199Z,52.70
